Time;durP1;ratioP1;P1;durP2;ratioP2;P2;SDS_P1;SDS_P2;PMS_P1;PMS_P2;Temp;Humidity;BMP_temperature;BMP_pressure;BME280_temperature;BME280_humidity;BME280_pressure;Samples;Min_cycle;Max_cycle;Signal;HPM_P1;HPM_P2
2021/08/23 00:01:42;;;;;;;0.13;0.13;;;15.90;99.90;;;;;;5043504;28;20068;-82
2021/08/23 00:04:08;;;;;;;0.20;0.20;;;15.90;99.90;;;;;;5043170;28;20370;-83
2021/08/23 00:06:34;;;;;;;0.23;0.23;;;15.80;99.90;;;;;;5058705;28;20101;-82
2021/08/23 00:08:59;;;;;;;0.20;0.20;;;15.70;99.90;;;;;;5044293;28;20037;-83
2021/08/23 00:11:25;;;;;;;0.20;0.20;;;15.70;99.90;;;;;;5045304;28;20029;-82
2021/08/23 00:13:51;;;;;;;0.13;0.13;;;15.70;99.90;;;;;;5039747;28;20072;-82
2021/08/23 00:16:17;;;;;;;0.10;0.10;;;15.60;99.90;;;;;;5044612;28;20392;-82
2021/08/23 00:18:44;;;;;;;0.10;0.10;;;15.60;99.90;;;;;;5039349;28;20041;-83
2021/08/23 00:21:20;;;;;;;1.38;0.52;;;15.70;99.90;;;;;;5043375;28;20116;-83
2021/08/23 00:23:50;;;;;;;0.10;0.10;;;15.80;99.90;;;;;;5042803;28;20033;-82
2021/08/23 00:26:16;;;;;;;0.13;0.13;;;15.50;99.90;;;;;;5044508;28;20557;-83
2021/08/23 00:28:42;;;;;;;0.00;0.00;;;15.50;99.90;;;;;;5041721;28;20108;-83
2021/08/23 00:31:07;;;;;;;0.10;0.10;;;15.40;99.90;;;;;;5043006;28;20594;-82
2021/08/23 00:33:33;;;;;;;0.30;0.20;;;15.50;99.90;;;;;;5039706;28;20229;-83
2021/08/23 00:35:58;;;;;;;0.10;0.10;;;15.60;99.90;;;;;;5043343;28;20076;-84
2021/08/23 00:38:24;;;;;;;0.20;0.20;;;16.40;99.90;;;;;;5041251;28;20194;-82
2021/08/23 00:40:50;;;;;;;0.10;0.10;;;15.70;99.90;;;;;;5041971;28;20409;-83
2021/08/23 00:43:15;;;;;;;0.10;0.10;;;15.70;99.90;;;;;;5044037;28;20757;-82
2021/08/23 00:45:42;;;;;;;0.10;0.10;;;15.70;99.90;;;;;;5043413;28;20463;-82
2021/08/23 00:48:11;;;;;;;1.65;0.30;;;15.60;99.90;;;;;;5042428;28;20044;-83
2021/08/23 00:50:37;;;;;;;0.30;0.30;;;15.90;99.90;;;;;;5042806;28;20109;-83
2021/08/23 00:53:04;;;;;;;0.15;0.15;;;15.60;99.90;;;;;;5039999;28;20036;-83
2021/08/23 00:55:32;;;;;;;0.10;0.10;;;15.50;99.90;;;;;;5041971;28;20183;-82
2021/08/23 00:57:59;;;;;;;0.10;0.10;;;15.60;99.90;;;;;;5042008;28;20520;-83
2021/08/23 01:00:25;;;;;;;0.63;0.30;;;15.60;99.90;;;;;;5041631;28;20112;-82
2021/08/23 01:03:05;;;;;;;0.10;0.10;;;15.80;99.90;;;;;;5042787;28;20763;-82
2021/08/23 01:05:32;;;;;;;0.10;0.10;;;15.70;99.90;;;;;;5043223;28;20029;-83
2021/08/23 01:08:13;;;;;;;0.10;0.10;;;15.40;99.90;;;;;;5042152;28;20587;-83
2021/08/23 01:10:47;;;;;;;0.10;0.10;;;15.50;99.90;;;;;;5040606;28;20053;-84
2021/08/23 01:13:13;;;;;;;1.17;0.70;;;15.40;99.90;;;;;;5041217;28;20057;-82
2021/08/23 01:15:40;;;;;;;0.17;0.17;;;15.30;99.90;;;;;;5038941;28;20057;-83
2021/08/23 01:18:06;;;;;;;0.38;0.35;;;15.20;99.90;;;;;;5040576;28;20029;-82
2021/08/23 01:20:36;;;;;;;0.10;0.10;;;15.30;99.90;;;;;;5043559;28;20029;-84
2021/08/23 01:23:03;;;;;;;1.10;0.65;;;15.10;99.90;;;;;;5040981;28;20036;-84
2021/08/23 01:25:31;;;;;;;0.10;0.10;;;15.10;99.90;;;;;;5041134;28;20029;-83
2021/08/23 01:28:20;;;;;;;0.20;0.20;;;15.10;99.90;;;;;;5039720;28;20033;-82
2021/08/23 01:31:05;;;;;;;0.00;0.00;;;15.10;99.90;;;;;;5040575;28;20045;-82
2021/08/23 01:33:31;;;;;;;0.25;0.25;;;15.00;99.90;;;;;;5041156;28;20017;-83
2021/08/23 01:35:59;;;;;;;0.28;0.28;;;15.00;99.90;;;;;;5041545;28;20033;-82
2021/08/23 01:38:25;;;;;;;0.10;0.10;;;15.00;99.90;;;;;;5042897;28;20025;-82
2021/08/23 01:41:05;;;;;;;0.10;0.10;;;14.90;99.90;;;;;;5040852;28;20036;-83
2021/08/23 01:43:31;;;;;;;0.10;0.10;;;14.90;99.90;;;;;;5038928;28;20027;-83
2021/08/23 01:45:57;;;;;;;0.30;0.30;;;14.90;99.90;;;;;;5038061;28;20137;-83
2021/08/23 01:48:23;;;;;;;0.23;0.23;;;14.90;99.90;;;;;;5041540;28;20203;-83
2021/08/23 01:50:49;;;;;;;0.17;0.17;;;14.80;99.90;;;;;;5039773;28;20656;-83
2021/08/23 01:53:16;;;;;;;0.10;0.10;;;14.90;99.90;;;;;;5040448;28;20043;-83
2021/08/23 01:55:46;;;;;;;;;;;14.90;99.90;;;;;;5041320;28;20243;-83
2021/08/23 01:58:11;;;;;;;0.22;0.22;;;14.80;99.90;;;;;;5040893;28;19919;-82
2021/08/23 02:00:37;;;;;;;0.97;0.30;;;14.90;99.90;;;;;;5040821;28;20033;-83
2021/08/23 02:03:04;;;;;;;0.10;0.10;;;14.70;99.90;;;;;;5040471;28;20032;-82
2021/08/23 02:05:30;;;;;;;0.00;0.00;;;14.80;99.90;;;;;;5039241;28;20036;-82
2021/08/23 02:07:56;;;;;;;0.10;0.10;;;14.90;99.90;;;;;;5038148;28;20053;-82
2021/08/23 02:10:22;;;;;;;0.20;0.20;;;14.80;99.90;;;;;;5039480;28;20405;-83
2021/08/23 02:12:48;;;;;;;0.20;0.20;;;14.90;99.90;;;;;;5037008;28;20037;-82
2021/08/23 02:15:14;;;;;;;0.30;0.30;;;15.00;99.90;;;;;;5040524;28;20044;-82
2021/08/23 02:17:39;;;;;;;0.20;0.20;;;15.00;99.90;;;;;;5040188;28;20044;-82
2021/08/23 02:20:07;;;;;;;0.43;0.43;;;15.10;99.90;;;;;;5038469;28;20401;-82
2021/08/23 02:22:33;;;;;;;0.10;0.10;;;15.20;99.90;;;;;;5040199;28;20033;-83
2021/08/23 02:24:58;;;;;;;0.20;0.20;;;15.20;99.90;;;;;;5040858;28;20759;-83
2021/08/23 02:27:24;;;;;;;0.30;0.30;;;14.90;99.90;;;;;;5041521;28;20033;-83
2021/08/23 02:29:49;;;;;;;0.10;0.10;;;15.20;99.90;;;;;;5041949;28;20037;-82
2021/08/23 02:32:15;;;;;;;0.43;0.43;;;15.30;99.90;;;;;;5041818;28;20083;-81
2021/08/23 02:34:41;;;;;;;0.20;0.20;;;15.10;99.90;;;;;;5036927;28;20028;-82
2021/08/23 02:37:06;;;;;;;0.10;0.10;;;15.30;99.90;;;;;;5040633;28;20033;-82
2021/08/23 02:39:32;;;;;;;0.33;0.20;;;15.40;99.90;;;;;;5037764;28;20148;-81
2021/08/23 02:41:58;;;;;;;0.20;0.20;;;15.60;99.90;;;;;;5040925;28;20150;-82
2021/08/23 02:44:23;;;;;;;0.97;0.13;;;15.60;99.90;;;;;;5038248;28;20525;-81
2021/08/23 02:46:50;;;;;;;0.20;0.20;;;15.50;99.90;;;;;;5038617;28;20033;-83
2021/08/23 02:49:16;;;;;;;;;;;15.30;99.90;;;;;;5037925;28;20048;-82
2021/08/23 02:51:46;;;;;;;0.00;0.00;;;15.30;99.90;;;;;;5036797;28;20360;-83
2021/08/23 02:54:12;;;;;;;0.05;0.05;;;15.20;99.90;;;;;;5040304;28;20033;-83
2021/08/23 02:56:38;;;;;;;0.10;0.10;;;15.00;99.90;;;;;;5042251;28;20585;-83
2021/08/23 02:59:04;;;;;;;0.20;0.20;;;14.70;99.90;;;;;;5038836;28;20117;-82
2021/08/23 03:01:30;;;;;;;0.13;0.13;;;14.80;99.90;;;;;;5040892;28;20416;-82
2021/08/23 03:03:55;;;;;;;0.10;0.10;;;14.70;99.90;;;;;;5037590;28;20030;-83
2021/08/23 03:06:21;;;;;;;0.10;0.10;;;14.60;99.90;;;;;;5040097;28;20104;-82
2021/08/23 03:08:47;;;;;;;0.20;0.20;;;14.50;99.90;;;;;;5040393;28;20128;-82
2021/08/23 03:11:14;;;;;;;0.10;0.10;;;14.50;99.90;;;;;;5038674;28;20036;-82
2021/08/23 03:13:44;;;;;;;0.20;0.20;;;14.40;99.90;;;;;;5036311;28;20112;-82
2021/08/23 03:16:10;;;;;;;0.10;0.10;;;14.30;99.90;;;;;;5040463;28;20116;-82
2021/08/23 03:18:37;;;;;;;0.20;0.20;;;14.30;99.90;;;;;;5036078;28;20033;-82
2021/08/23 03:21:03;;;;;;;0.55;0.52;;;14.20;99.90;;;;;;5041324;28;20040;-83
2021/08/23 03:23:30;;;;;;;0.38;0.38;;;14.20;99.90;;;;;;5040900;28;20036;-82
2021/08/23 03:25:57;;;;;;;0.15;0.15;;;14.00;99.90;;;;;;5033702;28;20073;-82
2021/08/23 03:28:23;;;;;;;0.17;0.17;;;14.30;99.90;;;;;;5043427;28;20029;-82
2021/08/23 03:30:49;;;;;;;0.10;0.10;;;14.10;99.90;;;;;;5039979;28;20469;-82
2021/08/23 03:33:15;;;;;;;0.30;0.30;;;14.40;99.90;;;;;;5044183;28;20086;-83
2021/08/23 03:35:41;;;;;;;5.45;0.30;;;14.60;99.90;;;;;;5045964;28;20036;-83
2021/08/23 03:38:07;;;;;;;0.23;0.23;;;14.50;99.90;;;;;;5042036;28;20482;-82
2021/08/23 03:40:33;;;;;;;0.30;0.30;;;14.50;99.90;;;;;;5039941;28;20029;-82
2021/08/23 03:42:58;;;;;;;0.50;0.50;;;14.40;99.90;;;;;;5044513;28;20394;-83
2021/08/23 03:45:24;;;;;;;0.70;0.70;;;14.50;99.90;;;;;;5044482;28;20028;-83
2021/08/23 03:47:50;;;;;;;0.20;0.20;;;14.40;99.90;;;;;;5043337;28;20163;-83
2021/08/23 03:50:15;;;;;;;0.20;0.20;;;14.40;99.90;;;;;;5041191;28;20045;-82
2021/08/23 03:52:41;;;;;;;1.60;1.03;;;14.70;99.90;;;;;;5040588;28;20033;-82
2021/08/23 03:55:08;;;;;;;0.10;0.10;;;14.40;99.90;;;;;;5040542;28;20083;-81
2021/08/23 03:57:35;;;;;;;0.10;0.10;;;14.30;99.90;;;;;;5039319;28;20409;-83
2021/08/23 04:00:03;;;;;;;25.75;0.47;;;14.40;99.90;;;;;;5044886;28;20037;-82
2021/08/23 04:02:29;;;;;;;0.10;0.10;;;14.40;99.90;;;;;;5043178;28;20426;-82
2021/08/23 04:04:55;;;;;;;0.50;0.50;;;14.30;99.90;;;;;;5039649;28;20032;-82
2021/08/23 04:07:20;;;;;;;0.20;0.20;;;14.20;99.90;;;;;;5042730;28;20501;-82
2021/08/23 04:09:46;;;;;;;1.93;1.57;;;14.10;99.90;;;;;;5038756;28;20416;-81
2021/08/23 04:12:12;;;;;;;0.20;0.20;;;14.10;99.90;;;;;;5043792;28;20061;-82
2021/08/23 04:14:38;;;;;;;0.20;0.20;;;14.10;99.90;;;;;;5039703;28;20072;-81
2021/08/23 04:17:04;;;;;;;0.20;0.20;;;14.00;99.90;;;;;;5039515;28;20037;-82
2021/08/23 04:19:30;;;;;;;0.30;0.30;;;13.90;99.90;;;;;;5038877;28;20767;-81
2021/08/23 04:21:56;;;;;;;0.20;0.20;;;13.80;99.90;;;;;;5042596;28;20115;-81
2021/08/23 04:24:22;;;;;;;0.47;0.47;;;13.80;99.90;;;;;;5041527;28;20095;-82
2021/08/23 04:26:48;;;;;;;0.20;0.20;;;13.80;99.90;;;;;;5043016;28;20028;-81
2021/08/23 04:29:15;;;;;;;0.30;0.30;;;13.70;99.90;;;;;;5042702;28;20048;-82
2021/08/23 04:31:41;;;;;;;0.68;0.45;;;13.60;99.90;;;;;;5042480;28;20033;-81
2021/08/23 04:34:07;;;;;;;0.13;0.13;;;13.50;99.90;;;;;;5042033;28;20712;-81
2021/08/23 04:36:33;;;;;;;0.10;0.10;;;13.60;99.90;;;;;;5043464;28;20040;-81
2021/08/23 04:38:58;;;;;;;0.10;0.10;;;13.50;99.90;;;;;;5041846;28;20025;-82
2021/08/23 04:41:24;;;;;;;0.53;0.20;;;13.70;99.90;;;;;;5043669;28;20033;-82
2021/08/23 04:43:50;;;;;;;0.10;0.10;;;13.60;99.90;;;;;;5042300;28;20052;-82
2021/08/23 04:46:15;;;;;;;2.57;0.43;;;13.40;99.90;;;;;;5040235;28;20167;-82
2021/08/23 04:48:41;;;;;;;0.20;0.20;;;13.60;99.90;;;;;;5040941;28;20527;-82
2021/08/23 04:51:07;;;;;;;0.57;0.50;;;13.90;99.90;;;;;;5041125;28;20128;-81
2021/08/23 04:53:33;;;;;;;0.00;0.00;;;13.80;99.90;;;;;;5044281;28;20116;-83
2021/08/23 04:55:59;;;;;;;0.20;0.20;;;13.90;99.90;;;;;;5042676;28;20029;-83
2021/08/23 04:58:24;;;;;;;0.10;0.10;;;13.90;99.90;;;;;;5042089;28;20127;-83
2021/08/23 05:00:50;;;;;;;0.10;0.10;;;13.70;99.90;;;;;;5042568;28;20079;-84
2021/08/23 05:03:16;;;;;;;0.10;0.10;;;13.60;99.90;;;;;;5041665;28;20037;-85
2021/08/23 05:05:42;;;;;;;0.10;0.10;;;13.40;99.90;;;;;;5043348;28;20032;-85
2021/08/23 05:08:08;;;;;;;0.00;0.00;;;13.50;99.90;;;;;;5043311;28;20044;-85
2021/08/23 05:10:34;;;;;;;0.10;0.10;;;14.00;99.90;;;;;;5042371;28;20505;-87
2021/08/23 05:13:00;;;;;;;0.43;0.10;;;13.50;99.90;;;;;;5058080;28;20760;-85
2021/08/23 05:15:26;;;;;;;0.33;0.23;;;13.70;99.90;;;;;;5040702;28;20291;-86
2021/08/23 05:17:52;;;;;;;0.10;0.10;;;13.90;99.90;;;;;;5045212;28;20033;-86
2021/08/23 05:20:19;;;;;;;0.10;0.10;;;14.70;99.90;;;;;;5041286;28;20029;-86
2021/08/23 05:22:45;;;;;;;0.17;0.17;;;15.40;99.90;;;;;;5041497;28;20041;-82
2021/08/23 05:25:11;;;;;;;0.40;0.40;;;15.20;99.90;;;;;;5042891;28;20032;-83
2021/08/23 05:27:36;;;;;;;0.08;0.08;;;15.60;99.90;;;;;;5040685;28;20028;-83
2021/08/23 05:30:06;;;;;;;0.10;0.10;;;15.70;99.90;;;;;;5040916;28;20045;-83
2021/08/23 05:32:31;;;;;;;0.10;0.10;;;15.60;99.90;;;;;;5041672;28;20040;-82
2021/08/23 05:34:57;;;;;;;0.20;0.20;;;16.00;99.90;;;;;;5041565;28;20489;-84
2021/08/23 05:37:23;;;;;;;0.10;0.10;;;16.50;99.90;;;;;;5038615;28;20929;-84
2021/08/23 05:39:49;;;;;;;0.20;0.20;;;16.40;99.90;;;;;;5041767;28;20029;-84
2021/08/23 05:42:15;;;;;;;0.20;0.20;;;15.90;99.90;;;;;;5040904;28;20040;-82
2021/08/23 05:44:41;;;;;;;0.73;0.30;;;15.60;99.90;;;;;;5042103;28;20058;-83
2021/08/23 05:47:07;;;;;;;0.13;0.13;;;15.00;99.90;;;;;;5041451;28;20033;-83
2021/08/23 05:49:33;;;;;;;0.00;0.00;;;15.00;99.90;;;;;;5040002;28;20453;-82
2021/08/23 05:52:00;;;;;;;0.10;0.10;;;15.00;99.90;;;;;;5038976;28;20660;-83
2021/08/23 05:54:26;;;;;;;0.55;0.28;;;14.80;99.90;;;;;;5038365;28;20033;-82
2021/08/23 05:56:53;;;;;;;1.85;1.08;;;15.10;99.90;;;;;;5039873;28;20033;-83
2021/08/23 05:59:19;;;;;;;0.00;0.00;;;15.60;99.90;;;;;;5039745;28;20033;-85
2021/08/23 06:01:45;;;;;;;0.03;0.03;;;14.80;99.90;;;;;;5031451;28;20792;-86
2021/08/23 06:04:11;;;;;;;3.00;1.20;;;15.30;99.90;;;;;;5037702;28;20111;-86
2021/08/23 06:06:40;;;;;;;0.10;0.10;;;15.60;99.90;;;;;;5037213;28;20025;-87
2021/08/23 06:09:05;;;;;;;0.00;0.00;;;15.50;99.90;;;;;;5024090;28;20040;-86
2021/08/23 06:11:31;;;;;;;0.10;0.10;;;15.70;99.90;;;;;;5048978;28;20074;-86
2021/08/23 06:13:58;;;;;;;0.00;0.00;;;15.70;99.90;;;;;;5025188;28;20083;-86
2021/08/23 06:16:23;;;;;;;0.10;0.10;;;15.90;99.90;;;;;;5027329;28;20120;-86
2021/08/23 06:18:49;;;;;;;0.10;0.10;;;15.90;99.90;;;;;;5030265;28;20830;-86
2021/08/23 06:21:15;;;;;;;0.00;0.00;;;16.00;99.90;;;;;;5030860;28;20585;-85
2021/08/23 06:23:40;;;;;;;0.20;0.20;;;16.40;99.90;;;;;;5026176;28;20021;-87
2021/08/23 06:26:06;;;;;;;1.10;0.87;;;16.60;99.90;;;;;;5024662;28;20029;-85
2021/08/23 06:28:32;;;;;;;0.10;0.10;;;16.60;99.90;;;;;;5025787;28;20032;-86
2021/08/23 06:30:57;;;;;;;0.10;0.10;;;16.90;99.90;;;;;;5027739;28;20595;-87
2021/08/23 06:33:23;;;;;;;0.10;0.10;;;17.10;99.90;;;;;;5041453;28;20037;-88
2021/08/23 06:35:49;;;;;;;0.00;0.00;;;17.10;99.90;;;;;;5031227;28;20486;-87
2021/08/23 06:38:14;;;;;;;0.00;0.00;;;17.30;99.90;;;;;;5028223;28;20029;-86
2021/08/23 06:40:40;;;;;;;0.20;0.20;;;17.50;99.90;;;;;;5028521;28;20040;-86
2021/08/23 06:43:06;;;;;;;0.10;0.10;;;17.60;99.90;;;;;;5025227;28;20025;-85
2021/08/23 06:45:33;;;;;;;1.40;0.47;;;17.20;99.90;;;;;;5027589;28;20037;-87
2021/08/23 06:47:58;;;;;;;0.10;0.10;;;17.20;99.90;;;;;;5023803;28;20123;-87
2021/08/23 06:50:24;;;;;;;0.07;0.07;;;17.60;99.90;;;;;;5029957;28;20081;-87
2021/08/23 06:52:50;;;;;;;0.30;0.20;;;17.70;99.90;;;;;;5026849;28;20033;-85
2021/08/23 06:55:15;;;;;;;0.23;0.23;;;18.00;99.90;;;;;;5030471;28;20033;-86
2021/08/23 06:57:41;;;;;;;0.00;0.00;;;18.60;99.90;;;;;;5042081;28;20025;-86
2021/08/23 07:00:07;;;;;;;0.20;0.20;;;18.50;99.90;;;;;;5037176;28;20061;-87
2021/08/23 07:02:33;;;;;;;0.25;0.25;;;18.70;99.90;;;;;;5033919;28;20045;-86
2021/08/23 07:04:59;;;;;;;0.10;0.10;;;19.20;99.90;;;;;;5035556;28;20343;-87
2021/08/23 07:07:25;;;;;;;0.37;0.37;;;19.20;99.90;;;;;;5030502;28;20045;-87
2021/08/23 07:09:50;;;;;;;0.00;0.00;;;19.40;99.90;;;;;;5029916;28;20037;-87
2021/08/23 07:12:16;;;;;;;0.17;0.17;;;19.50;99.90;;;;;;5027878;28;20013;-86
2021/08/23 07:14:42;;;;;;;0.00;0.00;;;20.20;99.90;;;;;;5044626;28;20079;-86
2021/08/23 07:17:08;;;;;;;0.00;0.00;;;24.00;99.90;;;;;;5042087;28;20021;-86
2021/08/23 07:19:34;;;;;;;0.30;0.08;;;25.60;99.90;;;;;;5040567;28;20017;-87
2021/08/23 07:22:01;;;;;;;0.00;0.00;;;27.20;97.00;;;;;;5040416;28;20040;-87
2021/08/23 07:24:26;;;;;;;;;;;27.60;94.70;;;;;;5042648;28;20037;-87
2021/08/23 07:26:52;;;;;;;;;;;26.40;93.60;;;;;;5043778;28;19909;-87
2021/08/23 07:29:19;;;;;;;0.10;0.10;;;28.40;91.60;;;;;;5042805;28;20316;-88
2021/08/23 07:31:44;;;;;;;0.08;0.08;;;27.90;91.10;;;;;;5040517;28;20719;-88
2021/08/23 07:34:11;;;;;;;0.00;0.00;;;27.00;90.00;;;;;;5039740;28;20087;-88
2021/08/23 07:36:36;;;;;;;0.00;0.00;;;28.00;83.80;;;;;;5055871;28;20025;-88
2021/08/23 07:39:03;;;;;;;0.00;0.00;;;27.20;86.50;;;;;;5043598;28;20615;-88
2021/08/23 07:41:29;;;;;;;0.08;0.08;;;29.30;79.90;;;;;;5040924;28;20040;-87
2021/08/23 07:43:55;;;;;;;0.10;0.10;;;28.00;81.30;;;;;;5032233;28;20069;-87
2021/08/23 07:46:20;;;;;;;0.10;0.10;;;27.60;80.90;;;;;;5034458;28;20071;-87
2021/08/23 07:48:46;;;;;;;0.00;0.00;;;26.20;86.10;;;;;;5039901;28;20549;-87
2021/08/23 07:51:12;;;;;;;0.00;0.00;;;24.60;88.30;;;;;;5043484;28;20091;-87
2021/08/23 07:53:39;;;;;;;0.10;0.00;;;25.10;87.20;;;;;;5042510;28;20038;-87
2021/08/23 07:56:05;;;;;;;0.10;0.00;;;25.80;85.70;;;;;;5040812;28;20036;-86
2021/08/23 07:58:31;;;;;;;0.00;0.00;;;26.40;82.40;;;;;;5039810;28;20021;-87
2021/08/23 08:00:56;;;;;;;0.00;0.00;;;28.20;80.20;;;;;;5040163;28;20033;-87
2021/08/23 08:03:22;;;;;;;0.00;0.00;;;29.40;77.90;;;;;;5041880;28;20064;-87
2021/08/23 08:05:47;;;;;;;0.10;0.10;;;27.00;75.60;;;;;;5042841;28;20068;-88
2021/08/23 08:08:13;;;;;;;1.35;0.43;;;28.00;74.50;;;;;;5041323;28;20064;-88
2021/08/23 08:10:39;;;;;;;0.00;0.00;;;26.70;77.00;;;;;;5038609;28;20052;-87
2021/08/23 08:13:06;;;;;;;0.25;0.25;;;27.60;73.50;;;;;;5039792;28;20120;-87
2021/08/23 08:15:33;;;;;;;0.00;0.00;;;27.80;74.20;;;;;;5040488;28;20063;-87
2021/08/23 08:17:58;;;;;;;0.00;0.00;;;28.50;72.30;;;;;;5043315;28;20033;-87
2021/08/23 08:20:24;;;;;;;0.00;0.00;;;28.60;69.00;;;;;;5042156;28;20035;-88
2021/08/23 08:22:50;;;;;;;0.00;0.00;;;30.10;62.80;;;;;;5039542;28;20075;-88
2021/08/23 08:25:16;;;;;;;0.10;0.10;;;30.00;62.20;;;;;;5039019;28;20119;-88
2021/08/23 08:27:42;;;;;;;0.30;0.15;;;28.50;62.90;;;;;;5039685;28;20029;-88
2021/08/23 08:30:10;;;;;;;0.00;0.00;;;29.20;59.90;;;;;;5043976;28;20029;-87
2021/08/23 08:32:36;;;;;;;0.10;0.10;;;28.90;62.60;;;;;;5042045;28;20468;-87
2021/08/23 08:35:02;;;;;;;0.00;0.00;;;27.70;67.80;;;;;;5038972;28;20050;-87
2021/08/23 08:37:28;;;;;;;0.00;0.00;;;28.90;62.90;;;;;;5038651;28;20705;-87
2021/08/23 08:39:53;;;;;;;0.17;0.03;;;29.40;62.80;;;;;;5054520;28;20859;-88
2021/08/23 08:42:19;;;;;;;0.00;0.00;;;29.70;57.80;;;;;;5041757;28;20033;-87
2021/08/23 08:44:46;;;;;;;2.10;0.52;;;28.80;58.70;;;;;;5041619;28;20029;-88
2021/08/23 08:47:17;;;;;;;0.00;0.00;;;31.00;56.10;;;;;;5037234;28;20033;-88
2021/08/23 08:49:43;;;;;;;0.20;0.10;;;29.10;56.70;;;;;;5036600;28;20049;-87
2021/08/23 08:52:10;;;;;;;0.20;0.20;;;30.20;53.20;;;;;;5038752;28;20489;-87
2021/08/23 08:54:38;;;;;;;0.00;0.00;;;27.90;60.50;;;;;;5038922;28;20051;-87
2021/08/23 08:57:03;;;;;;;0.00;0.00;;;30.10;55.70;;;;;;5027727;28;20040;-87
2021/08/23 08:59:30;;;;;;;9.15;0.38;;;30.20;53.30;;;;;;5041239;28;20044;-87
2021/08/23 09:01:57;;;;;;;0.10;0.10;;;29.80;52.90;;;;;;5054321;28;20037;-88
2021/08/23 09:04:37;;;;;;;0.00;0.00;;;30.00;55.00;;;;;;5038972;28;20037;-88
2021/08/23 09:07:04;;;;;;;0.17;0.10;;;32.00;45.40;;;;;;5038199;28;20044;-88
2021/08/23 09:09:31;;;;;;;0.00;0.00;;;33.30;45.60;;;;;;5039576;28;20132;-88
2021/08/23 09:12:02;;;;;;;0.00;0.00;;;30.20;49.90;;;;;;5042564;28;20441;-86
2021/08/23 09:14:28;;;;;;;0.00;0.00;;;31.10;45.90;;;;;;5041125;28;20033;-86
2021/08/23 09:16:54;;;;;;;;;;;29.10;51.60;;;;;;5039177;28;20459;-86
2021/08/23 09:19:25;;;;;;;0.10;0.10;;;27.70;53.00;;;;;;5036410;28;19923;-87
2021/08/23 09:22:00;;;;;;;0.65;0.17;;;27.10;57.20;;;;;;5038039;28;20409;-87
2021/08/23 09:24:30;;;;;;;0.00;0.00;;;29.40;53.40;;;;;;5040482;28;20027;-86
2021/08/23 09:27:22;;;;;;;1.95;0.20;;;28.80;51.70;;;;;;5041988;28;20612;-87
2021/08/23 09:29:59;;;;;;;0.10;0.10;;;29.20;45.20;;;;;;5040056;28;20048;-87
2021/08/23 09:32:32;;;;;;;0.47;0.45;;;29.50;50.30;;;;;;5029559;28;20025;-87
2021/08/23 09:34:59;;;;;;;0.00;0.00;;;30.50;47.00;;;;;;5028027;28;20041;-88
2021/08/23 09:37:27;;;;;;;0.00;0.00;;;31.00;50.90;;;;;;5027858;28;20021;-89
2021/08/23 09:39:54;;;;;;;0.00;0.00;;;29.80;44.40;;;;;;5028388;28;20037;-89
2021/08/23 09:42:25;;;;;;;0.00;0.00;;;29.90;45.90;;;;;;5028441;28;20036;-89
2021/08/23 09:44:53;;;;;;;0.10;0.10;;;28.00;48.30;;;;;;5023863;28;20029;-89
2021/08/23 09:47:27;;;;;;;0.00;0.00;;;29.40;47.60;;;;;;5026382;28;20112;-89
2021/08/23 09:49:52;;;;;;;0.08;0.00;;;30.50;41.90;;;;;;5027761;28;20608;-88
2021/08/23 09:52:29;;;;;;;0.00;0.00;;;29.60;44.20;;;;;;5027396;28;20025;-89
2021/08/23 09:55:04;;;;;;;0.30;0.10;;;29.60;43.40;;;;;;5029473;28;20029;-89
2021/08/23 09:57:33;;;;;;;0.10;0.10;;;31.50;41.70;;;;;;5026586;28;20390;-89
2021/08/23 10:00:00;;;;;;;0.20;0.13;;;30.80;42.10;;;;;;5024286;28;20029;-89
2021/08/23 10:02:26;;;;;;;;;;;32.20;37.40;;;;;;5027659;28;20142;-87
2021/08/23 10:04:53;;;;;;;0.00;0.00;;;29.90;43.20;;;;;;5027506;28;19916;-88
2021/08/23 10:07:19;;;;;;;0.00;0.00;;;29.90;40.60;;;;;;5029225;28;20051;-88
2021/08/23 10:09:45;;;;;;;0.00;0.00;;;31.60;35.60;;;;;;5032494;28;20022;-88
2021/08/23 10:12:13;;;;;;;0.00;0.00;;;31.90;35.50;;;;;;5031765;28;20068;-88
2021/08/23 10:14:42;;;;;;;0.00;0.00;;;31.50;39.00;;;;;;5030974;28;20033;-88
2021/08/23 10:17:08;;;;;;;0.10;0.10;;;31.90;38.10;;;;;;5031969;28;20033;-88
2021/08/23 10:19:33;;;;;;;0.08;0.08;;;30.70;34.70;;;;;;5030030;28;20044;-87
2021/08/23 10:22:00;;;;;;;0.00;0.00;;;34.50;31.40;;;;;;5046654;28;20123;-89
2021/08/23 10:24:29;;;;;;;0.10;0.10;;;34.40;27.00;;;;;;5025470;28;20098;-88
2021/08/23 10:26:55;;;;;;;0.10;0.00;;;36.20;23.90;;;;;;5042107;28;20033;-88
2021/08/23 10:29:21;;;;;;;0.00;0.00;;;33.80;28.30;;;;;;5056561;28;20021;-88
2021/08/23 10:31:48;;;;;;;0.00;0.00;;;35.40;26.70;;;;;;5036401;28;20029;-87
2021/08/23 10:34:20;;;;;;;;;;;31.90;33.50;;;;;;5035882;28;20025;-89
2021/08/23 10:36:50;;;;;;;0.57;0.47;;;30.10;33.50;;;;;;5036258;28;20444;-89
2021/08/23 10:39:21;;;;;;;0.30;0.30;;;30.10;37.20;;;;;;5038203;28;20036;-89
2021/08/23 10:41:51;;;;;;;0.85;0.30;;;33.40;30.70;;;;;;5038053;28;20090;-89
2021/08/23 10:44:32;;;;;;;0.00;0.00;;;29.90;41.20;;;;;;5040406;28;20074;-88
2021/08/23 10:47:14;;;;;;;0.08;0.00;;;32.00;32.20;;;;;;5032676;28;20577;-88
2021/08/23 10:49:43;;;;;;;0.00;0.00;;;33.10;35.00;;;;;;5030088;28;20037;-87
2021/08/23 10:52:09;;;;;;;0.00;0.00;;;29.70;39.10;;;;;;5032445;28;20040;-87
2021/08/23 10:54:43;;;;;;;7.40;1.20;;;29.00;48.90;;;;;;5034136;28;20052;-86
2021/08/23 10:57:11;;;;;;;0.00;0.00;;;28.10;46.80;;;;;;5035588;28;20094;-87
2021/08/23 10:59:54;;;;;;;0.10;0.10;;;26.30;47.90;;;;;;5038833;28;20025;-88
2021/08/23 11:02:30;;;;;;;0.00;0.00;;;24.60;51.70;;;;;;5037800;28;20028;-88
2021/08/23 11:04:58;;;;;;;0.00;0.00;;;25.80;52.50;;;;;;5033564;28;20025;-88
2021/08/23 11:07:30;;;;;;;0.00;0.00;;;25.50;51.80;;;;;;5036044;28;20080;-88
2021/08/23 11:10:13;;;;;;;0.35;0.35;;;25.50;51.30;;;;;;5036467;28;20037;-88
2021/08/23 11:12:47;;;;;;;0.00;0.00;;;26.20;50.90;;;;;;5052964;28;20039;-88
2021/08/23 11:15:20;;;;;;;0.00;0.00;;;25.80;53.00;;;;;;5035117;28;20117;-87
2021/08/23 11:18:03;;;;;;;0.00;0.00;;;25.40;52.30;;;;;;5034749;28;20033;-88
2021/08/23 11:20:36;;;;;;;0.13;0.13;;;24.30;55.30;;;;;;5041033;28;20696;-87
2021/08/23 11:23:13;;;;;;;0.00;0.00;;;25.10;54.70;;;;;;5037874;28;20029;-86
2021/08/23 11:25:44;;;;;;;0.10;0.10;;;23.90;56.50;;;;;;5037466;28;20037;-88
2021/08/23 11:28:12;;;;;;;0.00;0.00;;;24.40;55.20;;;;;;5034146;28;20110;-89
2021/08/23 11:30:41;;;;;;;0.10;0.10;;;25.00;55.60;;;;;;5033385;28;20056;-87
2021/08/23 11:33:09;;;;;;;0.38;0.38;;;25.10;55.90;;;;;;5035121;28;20041;-87
2021/08/23 11:35:35;;;;;;;0.00;0.00;;;24.60;55.30;;;;;;5038799;28;20028;-88
2021/08/23 11:38:07;;;;;;;0.08;0.08;;;24.30;56.70;;;;;;5036193;28;20073;-88
2021/08/23 11:40:37;;;;;;;0.00;0.00;;;24.30;58.10;;;;;;5036447;28;20025;-89
2021/08/23 11:43:05;;;;;;;0.32;0.32;;;24.10;58.10;;;;;;5050956;28;20040;-89
2021/08/23 11:45:34;;;;;;;0.00;0.00;;;24.40;56.80;;;;;;5054928;28;20041;-89
2021/08/23 11:48:01;;;;;;;0.00;0.00;;;24.50;56.50;;;;;;5043048;28;20079;-89
2021/08/23 11:50:27;;;;;;;0.05;0.05;;;24.40;56.60;;;;;;5042019;28;20051;-88
2021/08/23 11:52:56;;;;;;;;;;;24.60;57.50;;;;;;5040439;28;20029;-89
2021/08/23 11:55:31;;;;;;;0.65;0.47;;;24.70;56.50;;;;;;5034098;28;19955;-88
2021/08/23 11:57:59;;;;;;;0.00;0.00;;;24.50;56.90;;;;;;5035373;28;20055;-89
2021/08/23 12:00:25;;;;;;;0.00;0.00;;;25.30;57.30;;;;;;5039830;28;20036;-87
2021/08/23 12:03:16;;;;;;;0.00;0.00;;;25.20;54.50;;;;;;5042840;28;20155;-89
2021/08/23 12:05:41;;;;;;;0.00;0.00;;;26.20;55.90;;;;;;5042354;28;20098;-87
2021/08/23 12:08:20;;;;;;;0.00;0.00;;;26.30;52.90;;;;;;5053376;28;20053;-88
2021/08/23 12:10:51;;;;;;;0.05;0.05;;;25.90;53.70;;;;;;5032910;28;20619;-87
2021/08/23 12:13:18;;;;;;;0.00;0.00;;;26.10;53.20;;;;;;5043846;28;20029;-87
2021/08/23 12:16:03;;;;;;;0.00;0.00;;;25.20;53.30;;;;;;5027998;28;20099;-87
2021/08/23 12:18:37;;;;;;;0.00;0.00;;;24.20;55.90;;;;;;5027640;28;20584;-87
2021/08/23 12:21:12;;;;;;;0.00;0.00;;;24.70;57.70;;;;;;5026230;28;20029;-87
2021/08/23 12:23:59;;;;;;;0.00;0.00;;;24.90;55.60;;;;;;5023634;28;20040;-87
2021/08/23 12:26:29;;;;;;;0.00;0.00;;;25.30;55.40;;;;;;5027367;28;20030;-87
2021/08/23 12:29:16;;;;;;;0.10;0.10;;;25.90;54.20;;;;;;5025695;28;20041;-87
2021/08/23 12:31:59;;;;;;;0.00;0.00;;;24.90;54.20;;;;;;5026918;28;20044;-86
2021/08/23 12:34:28;;;;;;;0.10;0.10;;;25.00;55.50;;;;;;5026799;28;20029;-87
2021/08/23 12:36:57;;;;;;;0.00;0.00;;;25.50;54.20;;;;;;5025452;28;20036;-87
2021/08/23 12:39:23;;;;;;;0.10;0.10;;;26.10;52.90;;;;;;5029372;28;20064;-87
2021/08/23 12:41:53;;;;;;;0.00;0.00;;;26.30;52.70;;;;;;5026631;28;20057;-87
2021/08/23 12:44:19;;;;;;;0.15;0.10;;;25.60;53.80;;;;;;5025249;28;20087;-87
2021/08/23 12:46:45;;;;;;;0.55;0.47;;;24.90;67.30;;;;;;5026486;28;20584;-87
2021/08/23 12:49:11;;;;;;;0.00;0.00;;;24.70;56.30;;;;;;5024348;28;20073;-87
2021/08/23 12:51:41;;;;;;;0.35;0.13;;;24.90;57.00;;;;;;5025388;28;20124;-88